sensor_id;sensor_type;location;lat;lon;timestamp;temperature;humidity
15879;DHT22;61999;51.514;14.614;2023-03-21T00:01:50;5.40;67.80
15879;DHT22;61999;51.514;14.614;2023-03-21T00:04:19;5.40;67.80
15879;DHT22;61999;51.514;14.614;2023-03-21T00:06:47;5.30;68.00
15879;DHT22;61999;51.514;14.614;2023-03-21T00:09:15;5.30;68.20
15879;DHT22;61999;51.514;14.614;2023-03-21T00:11:43;5.30;68.10
15879;DHT22;61999;51.514;14.614;2023-03-21T00:14:12;5.30;68.10
15879;DHT22;61999;51.514;14.614;2023-03-21T00:16:44;5.30;68.20
15879;DHT22;61999;51.514;14.614;2023-03-21T00:19:17;5.20;68.10
15879;DHT22;61999;51.514;14.614;2023-03-21T00:21:46;5.30;68.30
15879;DHT22;61999;51.514;14.614;2023-03-21T00:24:34;5.20;68.10
15879;DHT22;61999;51.514;14.614;2023-03-21T00:27:02;5.20;68.30
15879;DHT22;61999;51.514;14.614;2023-03-21T00:29:51;5.30;68.30
15879;DHT22;61999;51.514;14.614;2023-03-21T00:32:20;5.30;68.50
15879;DHT22;61999;51.514;14.614;2023-03-21T00:34:50;5.30;68.20
15879;DHT22;61999;51.514;14.614;2023-03-21T00:37:38;5.40;68.10
15879;DHT22;61999;51.514;14.614;2023-03-21T00:40:07;5.30;68.00
15879;DHT22;61999;51.514;14.614;2023-03-21T00:42:48;5.40;68.40
15879;DHT22;61999;51.514;14.614;2023-03-21T00:45:16;5.50;67.80
15879;DHT22;61999;51.514;14.614;2023-03-21T00:47:44;5.40;67.60
15879;DHT22;61999;51.514;14.614;2023-03-21T00:50:14;5.40;67.80
15879;DHT22;61999;51.514;14.614;2023-03-21T00:52:42;5.40;67.80
15879;DHT22;61999;51.514;14.614;2023-03-21T00:55:12;5.30;67.70
15879;DHT22;61999;51.514;14.614;2023-03-21T00:57:42;5.30;67.90
15879;DHT22;61999;51.514;14.614;2023-03-21T01:00:14;5.40;68.10
15879;DHT22;61999;51.514;14.614;2023-03-21T01:02:44;5.40;67.50
15879;DHT22;61999;51.514;14.614;2023-03-21T01:05:30;5.40;67.80
15879;DHT22;61999;51.514;14.614;2023-03-21T01:08:19;5.40;67.40
15879;DHT22;61999;51.514;14.614;2023-03-21T01:10:55;5.70;67.10
15879;DHT22;61999;51.514;14.614;2023-03-21T01:13:24;5.80;66.60
15879;DHT22;61999;51.514;14.614;2023-03-21T01:15:53;5.70;66.40
15879;DHT22;61999;51.514;14.614;2023-03-21T01:18:24;5.60;66.80
15879;DHT22;61999;51.514;14.614;2023-03-21T01:20:56;5.50;67.10
15879;DHT22;61999;51.514;14.614;2023-03-21T01:23:27;5.80;66.40
15879;DHT22;61999;51.514;14.614;2023-03-21T01:25:56;5.80;66.30
15879;DHT22;61999;51.514;14.614;2023-03-21T01:28:25;5.60;66.60
15879;DHT22;61999;51.514;14.614;2023-03-21T01:30:55;5.60;66.70
15879;DHT22;61999;51.514;14.614;2023-03-21T01:33:23;5.70;66.70
15879;DHT22;61999;51.514;14.614;2023-03-21T01:35:51;5.60;67.60
15879;DHT22;61999;51.514;14.614;2023-03-21T01:38:33;5.50;66.70
15879;DHT22;61999;51.514;14.614;2023-03-21T01:41:01;5.40;66.90
15879;DHT22;61999;51.514;14.614;2023-03-21T01:43:35;5.50;67.20
15879;DHT22;61999;51.514;14.614;2023-03-21T01:46:35;5.50;66.90
15879;DHT22;61999;51.514;14.614;2023-03-21T01:49:19;5.30;67.00
15879;DHT22;61999;51.514;14.614;2023-03-21T01:51:53;5.20;67.40
15879;DHT22;61999;51.514;14.614;2023-03-21T01:54:36;5.10;67.70
15879;DHT22;61999;51.514;14.614;2023-03-21T01:57:10;5.10;67.80
15879;DHT22;61999;51.514;14.614;2023-03-21T01:59:44;5.00;67.60
15879;DHT22;61999;51.514;14.614;2023-03-21T02:02:18;5.00;67.80
15879;DHT22;61999;51.514;14.614;2023-03-21T02:04:49;5.00;68.20
15879;DHT22;61999;51.514;14.614;2023-03-21T02:07:24;5.00;68.00
15879;DHT22;61999;51.514;14.614;2023-03-21T02:09:57;5.00;68.00
15879;DHT22;61999;51.514;14.614;2023-03-21T02:12:26;5.00;68.00
15879;DHT22;61999;51.514;14.614;2023-03-21T02:14:55;4.90;68.00
15879;DHT22;61999;51.514;14.614;2023-03-21T02:17:29;4.90;68.20
15879;DHT22;61999;51.514;14.614;2023-03-21T02:20:21;4.90;68.10
15879;DHT22;61999;51.514;14.614;2023-03-21T02:23:33;5.00;68.30
15879;DHT22;61999;51.514;14.614;2023-03-21T02:26:40;5.10;67.70
15879;DHT22;61999;51.514;14.614;2023-03-21T02:29:43;5.10;67.30
15879;DHT22;61999;51.514;14.614;2023-03-21T02:32:44;5.00;67.20
15879;DHT22;61999;51.514;14.614;2023-03-21T02:35:33;5.00;67.30
15879;DHT22;61999;51.514;14.614;2023-03-21T02:38:26;5.00;67.40
15879;DHT22;61999;51.514;14.614;2023-03-21T02:41:03;5.00;67.30
15879;DHT22;61999;51.514;14.614;2023-03-21T02:43:46;5.00;67.30
15879;DHT22;61999;51.514;14.614;2023-03-21T02:46:26;5.00;67.30
15879;DHT22;61999;51.514;14.614;2023-03-21T02:49:13;4.90;67.10
15879;DHT22;61999;51.514;14.614;2023-03-21T02:51:47;5.00;67.00
15879;DHT22;61999;51.514;14.614;2023-03-21T02:54:20;5.00;66.80
15879;DHT22;61999;51.514;14.614;2023-03-21T02:57:04;5.00;66.60
15879;DHT22;61999;51.514;14.614;2023-03-21T02:59:34;5.00;66.20
15879;DHT22;61999;51.514;14.614;2023-03-21T03:02:14;5.00;65.90
15879;DHT22;61999;51.514;14.614;2023-03-21T03:04:45;5.10;65.40
15879;DHT22;61999;51.514;14.614;2023-03-21T03:07:24;5.00;65.50
15879;DHT22;61999;51.514;14.614;2023-03-21T03:10:21;5.00;65.30
15879;DHT22;61999;51.514;14.614;2023-03-21T03:13:06;4.90;65.20
15879;DHT22;61999;51.514;14.614;2023-03-21T03:15:52;4.90;65.00
15879;DHT22;61999;51.514;14.614;2023-03-21T03:18:38;4.90;64.90
15879;DHT22;61999;51.514;14.614;2023-03-21T03:21:17;4.90;64.50
15879;DHT22;61999;51.514;14.614;2023-03-21T03:23:54;4.90;64.10
15879;DHT22;61999;51.514;14.614;2023-03-21T03:26:32;4.90;64.20
15879;DHT22;61999;51.514;14.614;2023-03-21T03:29:05;4.90;63.90
15879;DHT22;61999;51.514;14.614;2023-03-21T03:31:38;4.90;63.90
15879;DHT22;61999;51.514;14.614;2023-03-21T03:34:14;4.80;63.90
15879;DHT22;61999;51.514;14.614;2023-03-21T03:36:49;4.80;63.80
15879;DHT22;61999;51.514;14.614;2023-03-21T03:39:25;4.80;64.00
15879;DHT22;61999;51.514;14.614;2023-03-21T03:42:04;4.80;63.70
15879;DHT22;61999;51.514;14.614;2023-03-21T03:44:52;4.80;64.00
15879;DHT22;61999;51.514;14.614;2023-03-21T03:47:25;4.70;64.10
15879;DHT22;61999;51.514;14.614;2023-03-21T03:50:10;4.70;64.20
15879;DHT22;61999;51.514;14.614;2023-03-21T03:52:44;4.70;64.40
15879;DHT22;61999;51.514;14.614;2023-03-21T03:55:23;4.70;64.50
15879;DHT22;61999;51.514;14.614;2023-03-21T03:58:01;4.60;64.60
15879;DHT22;61999;51.514;14.614;2023-03-21T04:00:33;4.60;64.60
15879;DHT22;61999;51.514;14.614;2023-03-21T04:03:02;4.60;64.70
15879;DHT22;61999;51.514;14.614;2023-03-21T04:05:32;4.60;64.80
15879;DHT22;61999;51.514;14.614;2023-03-21T04:08:00;4.60;64.50
15879;DHT22;61999;51.514;14.614;2023-03-21T04:10:28;4.60;64.80
15879;DHT22;61999;51.514;14.614;2023-03-21T04:12:56;4.60;64.80
15879;DHT22;61999;51.514;14.614;2023-03-21T04:15:25;4.60;64.80
15879;DHT22;61999;51.514;14.614;2023-03-21T04:17:53;4.60;64.90
15879;DHT22;61999;51.514;14.614;2023-03-21T04:20:21;4.60;65.00
15879;DHT22;61999;51.514;14.614;2023-03-21T04:23:01;4.60;65.10
15879;DHT22;61999;51.514;14.614;2023-03-21T04:25:32;4.60;65.00
15879;DHT22;61999;51.514;14.614;2023-03-21T04:28:02;4.60;65.00
15879;DHT22;61999;51.514;14.614;2023-03-21T04:30:32;4.60;65.10
15879;DHT22;61999;51.514;14.614;2023-03-21T04:33:00;4.60;65.20
15879;DHT22;61999;51.514;14.614;2023-03-21T04:35:28;4.70;65.20
15879;DHT22;61999;51.514;14.614;2023-03-21T04:37:56;4.60;65.20
15879;DHT22;61999;51.514;14.614;2023-03-21T04:40:24;4.70;65.10
15879;DHT22;61999;51.514;14.614;2023-03-21T04:42:52;4.70;65.00
15879;DHT22;61999;51.514;14.614;2023-03-21T04:45:19;4.70;65.00
15879;DHT22;61999;51.514;14.614;2023-03-21T04:47:49;4.70;64.90
15879;DHT22;61999;51.514;14.614;2023-03-21T04:50:17;4.70;64.90
15879;DHT22;61999;51.514;14.614;2023-03-21T04:52:45;4.70;64.90
15879;DHT22;61999;51.514;14.614;2023-03-21T04:55:14;4.70;64.90
15879;DHT22;61999;51.514;14.614;2023-03-21T04:57:42;4.70;65.00
15879;DHT22;61999;51.514;14.614;2023-03-21T05:00:11;4.70;65.00
15879;DHT22;61999;51.514;14.614;2023-03-21T05:02:40;4.70;65.10
15879;DHT22;61999;51.514;14.614;2023-03-21T05:05:10;4.70;65.00
15879;DHT22;61999;51.514;14.614;2023-03-21T05:07:39;4.70;65.00
15879;DHT22;61999;51.514;14.614;2023-03-21T05:10:10;4.70;65.10
15879;DHT22;61999;51.514;14.614;2023-03-21T05:12:38;4.70;65.20
15879;DHT22;61999;51.514;14.614;2023-03-21T05:15:08;4.80;65.40
15879;DHT22;61999;51.514;14.614;2023-03-21T05:17:36;4.80;64.60
15879;DHT22;61999;51.514;14.614;2023-03-21T05:20:05;4.80;64.50
15879;DHT22;61999;51.514;14.614;2023-03-21T05:22:36;4.80;64.60
15879;DHT22;61999;51.514;14.614;2023-03-21T05:25:08;4.80;64.60
15879;DHT22;61999;51.514;14.614;2023-03-21T05:27:37;4.70;64.70
15879;DHT22;61999;51.514;14.614;2023-03-21T05:30:13;4.70;64.90
15879;DHT22;61999;51.514;14.614;2023-03-21T05:32:43;4.60;65.00
15879;DHT22;61999;51.514;14.614;2023-03-21T05:35:11;4.60;65.20
15879;DHT22;61999;51.514;14.614;2023-03-21T05:37:40;4.70;65.10
15879;DHT22;61999;51.514;14.614;2023-03-21T05:40:09;4.70;65.10
15879;DHT22;61999;51.514;14.614;2023-03-21T05:42:37;4.70;65.00
15879;DHT22;61999;51.514;14.614;2023-03-21T05:45:06;4.70;64.90
15879;DHT22;61999;51.514;14.614;2023-03-21T05:47:34;4.70;65.30
15879;DHT22;61999;51.514;14.614;2023-03-21T05:50:03;4.70;64.80
15879;DHT22;61999;51.514;14.614;2023-03-21T05:52:32;4.70;64.80
15879;DHT22;61999;51.514;14.614;2023-03-21T05:55:01;4.70;64.70
15879;DHT22;61999;51.514;14.614;2023-03-21T05:57:30;4.70;64.70
15879;DHT22;61999;51.514;14.614;2023-03-21T06:00:01;4.70;64.60
15879;DHT22;61999;51.514;14.614;2023-03-21T06:02:30;4.80;64.60
15879;DHT22;61999;51.514;14.614;2023-03-21T06:04:58;4.70;64.40
15879;DHT22;61999;51.514;14.614;2023-03-21T06:07:26;4.80;64.10
15879;DHT22;61999;51.514;14.614;2023-03-21T06:09:54;4.90;63.90
15879;DHT22;61999;51.514;14.614;2023-03-21T06:12:24;5.00;63.50
15879;DHT22;61999;51.514;14.614;2023-03-21T06:14:52;4.90;63.40
15879;DHT22;61999;51.514;14.614;2023-03-21T06:17:20;4.90;63.50
15879;DHT22;61999;51.514;14.614;2023-03-21T06:19:48;5.00;63.20
15879;DHT22;61999;51.514;14.614;2023-03-21T06:22:16;5.10;62.90
15879;DHT22;61999;51.514;14.614;2023-03-21T06:24:44;5.10;63.50
15879;DHT22;61999;51.514;14.614;2023-03-21T06:27:12;5.10;62.70
15879;DHT22;61999;51.514;14.614;2023-03-21T06:29:41;5.00;62.80
15879;DHT22;61999;51.514;14.614;2023-03-21T06:32:11;5.10;62.80
15879;DHT22;61999;51.514;14.614;2023-03-21T06:34:39;5.10;62.80
15879;DHT22;61999;51.514;14.614;2023-03-21T06:37:07;5.00;63.20
15879;DHT22;61999;51.514;14.614;2023-03-21T06:39:35;4.90;63.60
15879;DHT22;61999;51.514;14.614;2023-03-21T06:42:03;4.90;63.70
15879;DHT22;61999;51.514;14.614;2023-03-21T06:44:31;4.90;63.70
15879;DHT22;61999;51.514;14.614;2023-03-21T06:47:01;5.00;63.90
15879;DHT22;61999;51.514;14.614;2023-03-21T06:49:32;5.20;63.00
15879;DHT22;61999;51.514;14.614;2023-03-21T06:52:00;5.30;62.80
15879;DHT22;61999;51.514;14.614;2023-03-21T06:54:28;5.30;62.60
15879;DHT22;61999;51.514;14.614;2023-03-21T06:56:56;5.20;63.00
15879;DHT22;61999;51.514;14.614;2023-03-21T06:59:24;5.30;62.90
15879;DHT22;61999;51.514;14.614;2023-03-21T07:01:52;5.30;63.20
15879;DHT22;61999;51.514;14.614;2023-03-21T07:04:21;5.40;63.10
15879;DHT22;61999;51.514;14.614;2023-03-21T07:06:49;5.40;63.10
15879;DHT22;61999;51.514;14.614;2023-03-21T07:09:17;5.40;63.50
15879;DHT22;61999;51.514;14.614;2023-03-21T07:11:50;5.50;62.90
15879;DHT22;61999;51.514;14.614;2023-03-21T07:14:19;5.60;62.60
15879;DHT22;61999;51.514;14.614;2023-03-21T07:16:48;5.60;62.60
15879;DHT22;61999;51.514;14.614;2023-03-21T07:19:16;5.50;63.20
15879;DHT22;61999;51.514;14.614;2023-03-21T07:21:45;5.70;62.60
15879;DHT22;61999;51.514;14.614;2023-03-21T07:24:13;5.70;62.40
15879;DHT22;61999;51.514;14.614;2023-03-21T07:26:41;5.80;61.40
15879;DHT22;61999;51.514;14.614;2023-03-21T07:29:09;6.10;60.00
15879;DHT22;61999;51.514;14.614;2023-03-21T07:31:37;6.10;59.80
15879;DHT22;61999;51.514;14.614;2023-03-21T07:34:05;6.00;60.40
15879;DHT22;61999;51.514;14.614;2023-03-21T07:36:33;6.00;60.40
15879;DHT22;61999;51.514;14.614;2023-03-21T07:39:04;5.90;61.40
15879;DHT22;61999;51.514;14.614;2023-03-21T07:41:33;6.00;61.10
15879;DHT22;61999;51.514;14.614;2023-03-21T07:44:01;5.80;61.70
15879;DHT22;61999;51.514;14.614;2023-03-21T07:46:29;5.90;61.50
15879;DHT22;61999;51.514;14.614;2023-03-21T07:48:57;5.70;61.60
15879;DHT22;61999;51.514;14.614;2023-03-21T07:51:25;5.60;61.90
15879;DHT22;61999;51.514;14.614;2023-03-21T07:53:53;5.50;62.30
15879;DHT22;61999;51.514;14.614;2023-03-21T07:56:22;5.30;62.90
15879;DHT22;61999;51.514;14.614;2023-03-21T07:58:50;5.30;63.60
15879;DHT22;61999;51.514;14.614;2023-03-21T08:01:17;5.10;63.90
15879;DHT22;61999;51.514;14.614;2023-03-21T08:03:45;5.30;63.90
15879;DHT22;61999;51.514;14.614;2023-03-21T08:06:14;5.20;64.40
15879;DHT22;61999;51.514;14.614;2023-03-21T08:08:41;5.30;63.80
15879;DHT22;61999;51.514;14.614;2023-03-21T08:11:10;5.60;63.40
15879;DHT22;61999;51.514;14.614;2023-03-21T08:13:40;5.50;63.10
15879;DHT22;61999;51.514;14.614;2023-03-21T08:16:08;5.50;63.40
15879;DHT22;61999;51.514;14.614;2023-03-21T08:18:36;5.70;62.90
15879;DHT22;61999;51.514;14.614;2023-03-21T08:21:05;5.80;62.20
15879;DHT22;61999;51.514;14.614;2023-03-21T08:23:35;5.70;62.50
15879;DHT22;61999;51.514;14.614;2023-03-21T08:26:03;5.70;62.50
15879;DHT22;61999;51.514;14.614;2023-03-21T08:28:31;5.80;62.30
15879;DHT22;61999;51.514;14.614;2023-03-21T08:31:06;5.90;61.60
15879;DHT22;61999;51.514;14.614;2023-03-21T08:33:34;5.70;62.40
15879;DHT22;61999;51.514;14.614;2023-03-21T08:36:03;5.50;63.20
15879;DHT22;61999;51.514;14.614;2023-03-21T08:38:32;5.40;63.90
15879;DHT22;61999;51.514;14.614;2023-03-21T08:41:00;5.70;62.50
15879;DHT22;61999;51.514;14.614;2023-03-21T08:43:29;5.60;62.90
15879;DHT22;61999;51.514;14.614;2023-03-21T08:45:57;5.60;63.10
15879;DHT22;61999;51.514;14.614;2023-03-21T08:48:26;5.60;63.60
15879;DHT22;61999;51.514;14.614;2023-03-21T08:50:54;5.90;62.30
15879;DHT22;61999;51.514;14.614;2023-03-21T08:53:22;6.00;62.10
15879;DHT22;61999;51.514;14.614;2023-03-21T08:55:50;6.20;61.30
15879;DHT22;61999;51.514;14.614;2023-03-21T08:58:17;6.20;61.60
15879;DHT22;61999;51.514;14.614;2023-03-21T09:00:46;6.10;61.80
15879;DHT22;61999;51.514;14.614;2023-03-21T09:03:14;6.40;60.20
15879;DHT22;61999;51.514;14.614;2023-03-21T09:05:43;6.30;60.70
15879;DHT22;61999;51.514;14.614;2023-03-21T09:08:11;6.30;60.90
15879;DHT22;61999;51.514;14.614;2023-03-21T09:10:39;6.40;60.30
15879;DHT22;61999;51.514;14.614;2023-03-21T09:13:07;6.60;59.30
15879;DHT22;61999;51.514;14.614;2023-03-21T09:15:35;6.70;58.80
15879;DHT22;61999;51.514;14.614;2023-03-21T09:18:03;6.60;58.60
15879;DHT22;61999;51.514;14.614;2023-03-21T09:20:44;6.30;59.40
15879;DHT22;61999;51.514;14.614;2023-03-21T09:23:14;6.00;60.70
15879;DHT22;61999;51.514;14.614;2023-03-21T09:25:44;5.90;61.30
15879;DHT22;61999;51.514;14.614;2023-03-21T09:28:12;6.20;61.30
15879;DHT22;61999;51.514;14.614;2023-03-21T09:30:42;6.20;61.40
15879;DHT22;61999;51.514;14.614;2023-03-21T09:33:10;6.10;61.60
15879;DHT22;61999;51.514;14.614;2023-03-21T09:35:38;6.20;61.50
15879;DHT22;61999;51.514;14.614;2023-03-21T09:38:08;6.10;62.00
15879;DHT22;61999;51.514;14.614;2023-03-21T09:40:47;6.30;61.20
15879;DHT22;61999;51.514;14.614;2023-03-21T09:43:37;6.30;62.10
15879;DHT22;61999;51.514;14.614;2023-03-21T09:46:18;6.40;62.70
15879;DHT22;61999;51.514;14.614;2023-03-21T09:48:55;6.50;63.30
15879;DHT22;61999;51.514;14.614;2023-03-21T09:51:30;6.80;61.60
15879;DHT22;61999;51.514;14.614;2023-03-21T09:54:06;7.10;59.50
15879;DHT22;61999;51.514;14.614;2023-03-21T09:56:44;7.60;57.30
15879;DHT22;61999;51.514;14.614;2023-03-21T09:59:19;7.50;57.10
15879;DHT22;61999;51.514;14.614;2023-03-21T10:01:51;7.60;56.60
15879;DHT22;61999;51.514;14.614;2023-03-21T10:04:20;7.60;56.70
15879;DHT22;61999;51.514;14.614;2023-03-21T10:06:55;7.40;57.20
15879;DHT22;61999;51.514;14.614;2023-03-21T10:09:29;7.30;57.80
15879;DHT22;61999;51.514;14.614;2023-03-21T10:12:02;7.20;58.00
15879;DHT22;61999;51.514;14.614;2023-03-21T10:14:37;7.30;57.80
15879;DHT22;61999;51.514;14.614;2023-03-21T10:17:18;7.50;56.30
15879;DHT22;61999;51.514;14.614;2023-03-21T10:19:57;7.50;56.40
15879;DHT22;61999;51.514;14.614;2023-03-21T10:22:37;7.50;56.80
15879;DHT22;61999;51.514;14.614;2023-03-21T10:25:10;7.50;56.70
15879;DHT22;61999;51.514;14.614;2023-03-21T10:27:42;7.40;57.70
15879;DHT22;61999;51.514;14.614;2023-03-21T10:30:33;7.50;57.50
15879;DHT22;61999;51.514;14.614;2023-03-21T10:33:07;7.50;57.30
15879;DHT22;61999;51.514;14.614;2023-03-21T10:35:40;7.50;57.80
15879;DHT22;61999;51.514;14.614;2023-03-21T10:38:17;7.70;56.80
15879;DHT22;61999;51.514;14.614;2023-03-21T10:40:49;7.80;56.80
15879;DHT22;61999;51.514;14.614;2023-03-21T10:43:30;7.80;57.20
15879;DHT22;61999;51.514;14.614;2023-03-21T10:46:10;7.80;57.90
15879;DHT22;61999;51.514;14.614;2023-03-21T10:48:42;7.90;56.80
15879;DHT22;61999;51.514;14.614;2023-03-21T10:51:16;7.90;56.50
15879;DHT22;61999;51.514;14.614;2023-03-21T10:53:50;7.70;57.20
15879;DHT22;61999;51.514;14.614;2023-03-21T10:56:25;7.60;57.70
15879;DHT22;61999;51.514;14.614;2023-03-21T10:58:57;7.50;58.00
15879;DHT22;61999;51.514;14.614;2023-03-21T11:01:29;7.90;57.10
15879;DHT22;61999;51.514;14.614;2023-03-21T11:04:07;7.90;57.20
15879;DHT22;61999;51.514;14.614;2023-03-21T11:06:40;7.70;58.00
15879;DHT22;61999;51.514;14.614;2023-03-21T11:09:14;7.50;58.00
15879;DHT22;61999;51.514;14.614;2023-03-21T11:11:51;7.50;58.50
15879;DHT22;61999;51.514;14.614;2023-03-21T11:14:36;7.70;58.00
15879;DHT22;61999;51.514;14.614;2023-03-21T11:17:22;7.70;58.00
15879;DHT22;61999;51.514;14.614;2023-03-21T11:19:57;7.80;57.20
15879;DHT22;61999;51.514;14.614;2023-03-21T11:22:29;7.80;57.40
15879;DHT22;61999;51.514;14.614;2023-03-21T11:25:08;7.70;57.50
15879;DHT22;61999;51.514;14.614;2023-03-21T11:27:46;7.60;57.60
15879;DHT22;61999;51.514;14.614;2023-03-21T11:30:21;7.40;58.10
15879;DHT22;61999;51.514;14.614;2023-03-21T11:32:52;7.40;58.50
15879;DHT22;61999;51.514;14.614;2023-03-21T11:35:24;7.30;58.50
15879;DHT22;61999;51.514;14.614;2023-03-21T11:37:58;7.50;58.50
15879;DHT22;61999;51.514;14.614;2023-03-21T11:40:27;7.60;58.20
15879;DHT22;61999;51.514;14.614;2023-03-21T11:42:58;8.10;55.80
15879;DHT22;61999;51.514;14.614;2023-03-21T11:45:30;8.20;55.90
15879;DHT22;61999;51.514;14.614;2023-03-21T11:48:03;8.00;56.40
15879;DHT22;61999;51.514;14.614;2023-03-21T11:50:40;8.10;56.00
15879;DHT22;61999;51.514;14.614;2023-03-21T11:53:22;8.30;54.90
15879;DHT22;61999;51.514;14.614;2023-03-21T11:56:14;8.30;54.30
15879;DHT22;61999;51.514;14.614;2023-03-21T11:59:17;8.10;55.30
15879;DHT22;61999;51.514;14.614;2023-03-21T12:02:02;8.20;55.20
15879;DHT22;61999;51.514;14.614;2023-03-21T12:04:46;8.30;54.60
15879;DHT22;61999;51.514;14.614;2023-03-21T12:07:29;8.40;54.50
15879;DHT22;61999;51.514;14.614;2023-03-21T12:10:32;8.40;54.50
15879;DHT22;61999;51.514;14.614;2023-03-21T12:13:20;8.10;55.60
15879;DHT22;61999;51.514;14.614;2023-03-21T12:16:13;8.20;55.50
15879;DHT22;61999;51.514;14.614;2023-03-21T12:19:00;8.50;54.80
15879;DHT22;61999;51.514;14.614;2023-03-21T12:21:46;8.70;53.60
15879;DHT22;61999;51.514;14.614;2023-03-21T12:24:31;8.70;53.90
15879;DHT22;61999;51.514;14.614;2023-03-21T12:27:10;8.60;54.50
15879;DHT22;61999;51.514;14.614;2023-03-21T12:29:55;8.70;55.10
15879;DHT22;61999;51.514;14.614;2023-03-21T12:32:46;8.50;55.60
15879;DHT22;61999;51.514;14.614;2023-03-21T12:35:30;8.50;55.50
15879;DHT22;61999;51.514;14.614;2023-03-21T12:38:14;8.20;55.00
15879;DHT22;61999;51.514;14.614;2023-03-21T12:40:59;8.50;56.40
15879;DHT22;61999;51.514;14.614;2023-03-21T12:43:41;8.70;55.00
15879;DHT22;61999;51.514;14.614;2023-03-21T12:46:18;8.90;55.60
15879;DHT22;61999;51.514;14.614;2023-03-21T12:48:52;9.00;54.40
15879;DHT22;61999;51.514;14.614;2023-03-21T12:51:28;9.50;53.50
15879;DHT22;61999;51.514;14.614;2023-03-21T12:54:04;9.90;53.80
15879;DHT22;61999;51.514;14.614;2023-03-21T12:56:40;10.00;52.60
15879;DHT22;61999;51.514;14.614;2023-03-21T12:59:22;10.00;52.20
15879;DHT22;61999;51.514;14.614;2023-03-21T13:01:59;10.40;51.80
15879;DHT22;61999;51.514;14.614;2023-03-21T13:04:46;10.70;51.50
15879;DHT22;61999;51.514;14.614;2023-03-21T13:07:25;10.80;51.60
15879;DHT22;61999;51.514;14.614;2023-03-21T13:09:58;11.20;50.00
15879;DHT22;61999;51.514;14.614;2023-03-21T13:12:42;11.30;49.40
15879;DHT22;61999;51.514;14.614;2023-03-21T13:15:38;11.40;49.10
15879;DHT22;61999;51.514;14.614;2023-03-21T13:18:25;11.40;49.70
15879;DHT22;61999;51.514;14.614;2023-03-21T13:21:04;11.80;48.60
15879;DHT22;61999;51.514;14.614;2023-03-21T13:23:40;11.60;48.10
15879;DHT22;61999;51.514;14.614;2023-03-21T13:26:31;11.70;49.00
15879;DHT22;61999;51.514;14.614;2023-03-21T13:29:12;12.00;48.30
15879;DHT22;61999;51.514;14.614;2023-03-21T13:31:47;12.20;47.80
15879;DHT22;61999;51.514;14.614;2023-03-21T13:34:20;12.30;48.00
15879;DHT22;61999;51.514;14.614;2023-03-21T13:36:51;12.50;46.80
15879;DHT22;61999;51.514;14.614;2023-03-21T13:39:23;12.20;46.80
15879;DHT22;61999;51.514;14.614;2023-03-21T13:41:54;11.80;48.00
15879;DHT22;61999;51.514;14.614;2023-03-21T13:44:38;11.80;48.20
15879;DHT22;61999;51.514;14.614;2023-03-21T13:47:27;11.90;48.00
15879;DHT22;61999;51.514;14.614;2023-03-21T13:50:24;11.90;47.50
15879;DHT22;61999;51.514;14.614;2023-03-21T13:53:21;11.70;48.10
15879;DHT22;61999;51.514;14.614;2023-03-21T13:56:20;11.60;48.10
15879;DHT22;61999;51.514;14.614;2023-03-21T13:58:52;11.50;48.50
15879;DHT22;61999;51.514;14.614;2023-03-21T14:01:35;11.20;48.70
15879;DHT22;61999;51.514;14.614;2023-03-21T14:04:14;11.10;49.50
15879;DHT22;61999;51.514;14.614;2023-03-21T14:06:48;11.30;49.10
15879;DHT22;61999;51.514;14.614;2023-03-21T14:09:25;11.30;49.10
15879;DHT22;61999;51.514;14.614;2023-03-21T14:11:56;11.30;49.80
15879;DHT22;61999;51.514;14.614;2023-03-21T14:14:37;11.50;48.80
15879;DHT22;61999;51.514;14.614;2023-03-21T14:17:11;11.40;49.10
15879;DHT22;61999;51.514;14.614;2023-03-21T14:19:40;11.50;50.10
15879;DHT22;61999;51.514;14.614;2023-03-21T14:22:09;11.70;49.80
15879;DHT22;61999;51.514;14.614;2023-03-21T14:24:46;12.00;47.90
15879;DHT22;61999;51.514;14.614;2023-03-21T14:27:15;12.00;49.70
15879;DHT22;61999;51.514;14.614;2023-03-21T14:29:43;12.20;48.90
15879;DHT22;61999;51.514;14.614;2023-03-21T14:32:17;12.20;48.50
15879;DHT22;61999;51.514;14.614;2023-03-21T14:34:48;12.20;46.80
15879;DHT22;61999;51.514;14.614;2023-03-21T14:37:26;12.30;47.70
15879;DHT22;61999;51.514;14.614;2023-03-21T14:40:02;12.60;47.10
15879;DHT22;61999;51.514;14.614;2023-03-21T14:42:35;12.50;47.10
15879;DHT22;61999;51.514;14.614;2023-03-21T14:45:16;12.40;47.20
15879;DHT22;61999;51.514;14.614;2023-03-21T14:47:57;12.30;47.90
15879;DHT22;61999;51.514;14.614;2023-03-21T14:50:33;11.90;46.90
15879;DHT22;61999;51.514;14.614;2023-03-21T14:53:06;11.60;48.20
15879;DHT22;61999;51.514;14.614;2023-03-21T14:55:43;11.50;48.50
15879;DHT22;61999;51.514;14.614;2023-03-21T14:58:15;11.50;49.00
15879;DHT22;61999;51.514;14.614;2023-03-21T15:00:47;11.60;48.50
15879;DHT22;61999;51.514;14.614;2023-03-21T15:03:18;11.50;48.40
15879;DHT22;61999;51.514;14.614;2023-03-21T15:05:49;11.50;48.40
15879;DHT22;61999;51.514;14.614;2023-03-21T15:08:18;11.30;49.30
15879;DHT22;61999;51.514;14.614;2023-03-21T15:10:56;11.30;49.30
15879;DHT22;61999;51.514;14.614;2023-03-21T15:13:36;11.40;48.50
15879;DHT22;61999;51.514;14.614;2023-03-21T15:16:11;11.10;49.10
15879;DHT22;61999;51.514;14.614;2023-03-21T15:18:40;11.30;48.60
15879;DHT22;61999;51.514;14.614;2023-03-21T15:21:15;11.30;48.70
15879;DHT22;61999;51.514;14.614;2023-03-21T15:23:49;11.00;49.10
15879;DHT22;61999;51.514;14.614;2023-03-21T15:26:25;10.50;50.20
15879;DHT22;61999;51.514;14.614;2023-03-21T15:28:56;10.30;50.60
15879;DHT22;61999;51.514;14.614;2023-03-21T15:31:28;10.10;51.20
15879;DHT22;61999;51.514;14.614;2023-03-21T15:34:00;9.40;52.30
15879;DHT22;61999;51.514;14.614;2023-03-21T15:36:32;9.40;52.70
15879;DHT22;61999;51.514;14.614;2023-03-21T15:39:05;9.20;53.40
15879;DHT22;61999;51.514;14.614;2023-03-21T15:41:36;9.00;53.50
15879;DHT22;61999;51.514;14.614;2023-03-21T15:44:11;8.90;53.70
15879;DHT22;61999;51.514;14.614;2023-03-21T15:46:42;8.90;53.80
15879;DHT22;61999;51.514;14.614;2023-03-21T15:49:19;8.90;54.00
15879;DHT22;61999;51.514;14.614;2023-03-21T15:51:56;8.80;54.40
15879;DHT22;61999;51.514;14.614;2023-03-21T15:54:30;8.50;55.10
15879;DHT22;61999;51.514;14.614;2023-03-21T15:57:03;8.60;55.00
15879;DHT22;61999;51.514;14.614;2023-03-21T15:59:41;8.70;54.70
15879;DHT22;61999;51.514;14.614;2023-03-21T16:02:15;9.00;54.50
15879;DHT22;61999;51.514;14.614;2023-03-21T16:04:56;9.20;54.40
15879;DHT22;61999;51.514;14.614;2023-03-21T16:07:25;9.20;54.10
15879;DHT22;61999;51.514;14.614;2023-03-21T16:09:59;8.80;54.60
15879;DHT22;61999;51.514;14.614;2023-03-21T16:12:31;8.80;54.70